Time;durP1;ratioP1;P1;durP2;ratioP2;P2;SDS_P1;SDS_P2;PMS_P1;PMS_P2;Temp;Humidity;BMP_temperature;BMP_pressure;BME280_temperature;BME280_humidity;BME280_pressure;Samples;Min_cycle;Max_cycle;Signal;HPM_P1;HPM_P2
2022/07/19 00:00:18;;;;;;;;;;;;;;;28.65;35.92;101570.08;104863;1305;60461;-80
2022/07/19 00:02:44;;;;;;;;;;;;;;;28.65;35.92;101567.02;104882;1306;60466;-82
2022/07/19 00:05:09;;;;;;;;;;;;;;;28.65;35.74;101571.91;104907;1305;60469;-81
2022/07/19 00:07:35;;;;;;;;;;;;;;;28.64;35.85;101570.86;104872;1306;60520;-81
2022/07/19 00:10:00;;;;;;;;;;;;;;;28.64;35.94;101574.64;104859;1306;71955;-81
2022/07/19 00:12:26;;;;;;;;;;;;;;;28.64;36.16;101568.86;104866;1304;60478;-81
2022/07/19 00:14:51;;;;;;;;;;;;;;;28.64;36.14;101570.31;104705;1306;60427;-81
2022/07/19 00:17:17;;;;;;;;;;;;;;;28.64;35.88;101570.14;104904;1304;60498;-81
2022/07/19 00:19:42;;;;;;;;;;;;;;;28.64;35.87;101570.88;104890;1305;60487;-81
2022/07/19 00:22:08;;;;;;;;;;;;;;;28.63;35.85;101570.00;104881;1306;60481;-81
2022/07/19 00:24:33;;;;;;;;;;;;;;;28.63;35.93;101570.16;104886;1306;60491;-80
2022/07/19 00:26:58;;;;;;;;;;;;;;;28.64;36.14;101572.14;104913;1305;60459;-81
2022/07/19 00:29:25;;;;;;;;;;;;;;;28.63;35.81;101566.20;104931;1306;60477;-80
2022/07/19 00:31:50;;;;;;;;;;;;;;;28.63;36.13;101566.39;104906;1305;60574;-80
2022/07/19 00:34:15;;;;;;;;;;;;;;;28.63;35.88;101565.34;104858;1306;74721;-80
2022/07/19 00:36:41;;;;;;;;;;;;;;;28.63;35.82;101563.73;104865;1306;60635;-80
2022/07/19 00:39:07;;;;;;;;;;;;;;;28.63;36.06;101561.38;104907;1306;60481;-80
2022/07/19 00:41:32;;;;;;;;;;;;;;;28.63;35.97;101559.38;104887;1306;60446;-80
2022/07/19 00:43:57;;;;;;;;;;;;;;;28.62;36.00;101560.50;104884;1306;60467;-81
2022/07/19 00:46:23;;;;;;;;;;;;;;;28.62;35.83;101561.95;104700;1306;60501;-81
2022/07/19 00:48:48;;;;;;;;;;;;;;;28.62;35.88;101565.95;104864;1306;60562;-81
2022/07/19 00:51:14;;;;;;;;;;;;;;;28.62;35.95;101559.98;104910;1306;60448;-81
2022/07/19 00:53:40;;;;;;;;;;;;;;;28.62;35.83;101559.63;104867;1305;60439;-81
2022/07/19 00:56:06;;;;;;;;;;;;;;;28.62;36.03;101558.92;104898;1305;60535;-81
2022/07/19 00:58:31;;;;;;;;;;;;;;;28.61;36.16;101556.98;104944;1305;60448;-81
2022/07/19 01:00:57;;;;;;;;;;;;;;;28.61;35.90;101558.06;104863;1306;73978;-81
2022/07/19 01:03:23;;;;;;;;;;;;;;;28.61;36.07;101559.15;104870;1306;60445;-81
2022/07/19 01:05:48;;;;;;;;;;;;;;;28.61;36.05;101555.88;104890;1305;60400;-81
2022/07/19 01:08:14;;;;;;;;;;;;;;;28.60;35.98;101555.04;104940;1305;60559;-80
2022/07/19 01:10:39;;;;;;;;;;;;;;;28.60;36.00;101555.23;104949;1305;60477;-80
2022/07/19 01:13:05;;;;;;;;;;;;;;;28.60;35.99;101554.52;104721;1306;74769;-81
2022/07/19 01:15:30;;;;;;;;;;;;;;;28.60;36.09;101553.61;104867;1306;61227;-81
2022/07/19 01:17:55;;;;;;;;;;;;;;;28.60;36.07;101551.84;104889;1306;60515;-81
2022/07/19 01:20:22;;;;;;;;;;;;;;;28.60;36.13;101554.92;104739;1305;60610;-81
2022/07/19 01:22:47;;;;;;;;;;;;;;;28.59;36.15;101551.30;104886;1306;60427;-81
2022/07/19 01:25:13;;;;;;;;;;;;;;;28.59;36.16;101548.80;104932;1306;60469;-81
2022/07/19 01:27:47;;;;;;;;;;;;;;;28.59;36.18;101553.34;104882;1306;60592;-81
2022/07/19 01:30:17;;;;;;;;;;;;;;;28.59;36.03;101554.26;104900;1305;60452;-81
2022/07/19 01:32:43;;;;;;;;;;;;;;;28.59;36.24;101551.51;104893;1306;72961;-81
2022/07/19 01:35:09;;;;;;;;;;;;;;;28.59;36.21;101549.01;104908;1306;60572;-80
2022/07/19 01:37:36;;;;;;;;;;;;;;;28.59;36.10;101550.28;104920;1304;60565;-80
2022/07/19 01:40:06;;;;;;;;;;;;;;;28.58;36.02;101548.70;104890;1306;60927;-80
2022/07/19 01:42:31;;;;;;;;;;;;;;;28.58;36.26;101548.51;104902;1306;72892;-80
2022/07/19 01:44:57;;;;;;;;;;;;;;;28.58;36.14;101547.62;104864;1305;60500;-80
2022/07/19 01:47:23;;;;;;;;;;;;;;;28.58;36.15;101550.51;104743;1306;60514;-80
2022/07/19 01:49:48;;;;;;;;;;;;;;;28.58;36.22;101548.13;104881;1306;60540;-80
2022/07/19 01:52:13;;;;;;;;;;;;;;;28.58;36.35;101549.79;104884;1306;60546;-80
2022/07/19 01:54:39;;;;;;;;;;;;;;;28.58;36.28;101547.08;104854;1306;72810;-80
2022/07/19 01:57:04;;;;;;;;;;;;;;;28.58;36.28;101548.36;104865;1306;60602;-81
2022/07/19 01:59:30;;;;;;;;;;;;;;;28.57;36.38;101548.81;104932;1306;60548;-80
2022/07/19 02:01:55;;;;;;;;;;;;;;;28.57;36.45;101549.34;104842;1306;60798;-80
2022/07/19 02:04:20;;;;;;;;;;;;;;;28.57;36.33;101549.73;104938;1305;60585;-80
2022/07/19 02:06:46;;;;;;;;;;;;;;;28.57;36.30;101547.74;104892;1305;60541;-80
2022/07/19 02:09:11;;;;;;;;;;;;;;;28.56;36.44;101545.08;104867;1306;60888;-80
2022/07/19 02:11:37;;;;;;;;;;;;;;;28.56;36.72;101549.09;104681;1306;60540;-80
2022/07/19 02:14:07;;;;;;;;;;;;;;;28.56;36.37;101550.14;104856;1305;60599;-80
2022/07/19 02:16:32;;;;;;;;;;;;;;;28.56;36.51;101553.77;104854;1306;60452;-80
2022/07/19 02:18:58;;;;;;;;;;;;;;;28.56;36.26;101556.88;104855;1305;60446;-80
2022/07/19 02:21:23;;;;;;;;;;;;;;;28.56;36.32;101559.23;104884;1306;60473;-80
2022/07/19 02:23:48;;;;;;;;;;;;;;;28.56;36.33;101555.29;104882;1306;60496;-80
2022/07/19 02:26:14;;;;;;;;;;;;;;;28.55;36.32;101555.52;104943;1305;60576;-80
2022/07/19 02:28:39;;;;;;;;;;;;;;;28.55;36.22;101558.00;104843;1306;60416;-80
2022/07/19 02:31:05;;;;;;;;;;;;;;;28.55;36.38;101557.48;104761;1304;60577;-80
2022/07/19 02:33:30;;;;;;;;;;;;;;;28.55;36.39;101560.73;104877;1305;60479;-80
2022/07/19 02:35:56;;;;;;;;;;;;;;;28.55;36.20;101561.31;104842;1306;60654;-80
2022/07/19 02:38:22;;;;;;;;;;;;;;;28.55;36.20;101559.31;104918;1306;60473;-80
2022/07/19 02:40:47;;;;;;;;;;;;;;;28.54;36.42;101559.94;104902;1306;74041;-80
2022/07/19 02:43:13;;;;;;;;;;;;;;;28.55;36.53;101562.27;104920;1306;60481;-80
2022/07/19 02:45:38;;;;;;;;;;;;;;;28.54;36.53;101563.04;104875;1305;60416;-80
2022/07/19 02:48:04;;;;;;;;;;;;;;;28.54;36.22;101560.52;104911;1305;61181;-80
2022/07/19 02:50:33;;;;;;;;;;;;;;;28.54;36.62;101560.34;104876;1306;60484;-80
2022/07/19 02:52:58;;;;;;;;;;;;;;;28.53;36.38;101560.58;104842;1305;60488;-80
2022/07/19 02:55:23;;;;;;;;;;;;;;;28.54;36.52;101561.98;104756;1306;60523;-80
2022/07/19 02:57:49;;;;;;;;;;;;;;;28.54;36.50;101566.30;104954;1306;60404;-80
2022/07/19 03:00:14;;;;;;;;;;;;;;;28.53;36.55;101568.36;104832;1305;61401;-80
2022/07/19 03:02:40;;;;;;;;;;;;;;;28.54;36.51;101567.80;104932;1306;60482;-80
2022/07/19 03:05:06;;;;;;;;;;;;;;;28.54;36.55;101569.06;104866;1306;60454;-80
2022/07/19 03:07:31;;;;;;;;;;;;;;;28.53;36.63;101570.19;104730;1306;60580;-80
2022/07/19 03:09:57;;;;;;;;;;;;;;;28.53;36.80;101568.20;104747;1305;60478;-80
2022/07/19 03:12:22;;;;;;;;;;;;;;;28.53;36.43;101569.27;104877;1306;61262;-80
2022/07/19 03:14:48;;;;;;;;;;;;;;;28.53;36.47;101568.21;104906;1305;60517;-81
2022/07/19 03:17:13;;;;;;;;;;;;;;;28.53;36.57;101570.89;104864;1306;60607;-80
2022/07/19 03:19:39;;;;;;;;;;;;;;;28.53;36.77;101574.92;104869;1306;60442;-80
2022/07/19 03:22:06;;;;;;;;;;;;;;;28.53;36.58;101573.10;104888;1306;60424;-80
2022/07/19 03:24:31;;;;;;;;;;;;;;;28.53;36.52;101572.72;104882;1306;61475;-80
2022/07/19 03:26:56;;;;;;;;;;;;;;;28.53;36.39;101574.72;104856;1306;60467;-80
2022/07/19 03:29:22;;;;;;;;;;;;;;;28.53;36.50;101575.67;104860;1306;60465;-80
2022/07/19 03:31:47;;;;;;;;;;;;;;;28.53;36.74;101575.81;104688;1306;60578;-80
2022/07/19 03:34:13;;;;;;;;;;;;;;;28.53;36.59;101575.66;104908;1305;60568;-80
2022/07/19 03:36:38;;;;;;;;;;;;;;;28.53;36.33;101575.27;104860;1306;60541;-80
2022/07/19 03:39:04;;;;;;;;;;;;;;;28.53;36.64;101576.55;104902;1306;60672;-80
2022/07/19 03:41:29;;;;;;;;;;;;;;;28.53;36.48;101579.08;104891;1306;60488;-81
2022/07/19 03:43:55;;;;;;;;;;;;;;;28.53;36.45;101579.45;104850;1304;60443;-81
2022/07/19 03:46:20;;;;;;;;;;;;;;;28.53;36.60;101580.70;104930;1306;60486;-80
2022/07/19 03:48:46;;;;;;;;;;;;;;;28.53;36.62;101580.87;104912;1306;60448;-80
2022/07/19 03:51:12;;;;;;;;;;;;;;;28.54;36.55;101580.47;104890;1306;61190;-80
2022/07/19 03:53:37;;;;;;;;;;;;;;;28.53;36.46;101576.73;104733;1306;60446;-80
2022/07/19 03:56:03;;;;;;;;;;;;;;;28.53;36.49;101582.52;104832;1305;60401;-80
2022/07/19 03:58:28;;;;;;;;;;;;;;;28.53;36.45;101580.56;104875;1306;60507;-80
2022/07/19 04:00:54;;;;;;;;;;;;;;;28.53;36.61;101581.83;104924;1306;60516;-81
2022/07/19 04:03:19;;;;;;;;;;;;;;;28.53;36.58;101578.36;104871;1306;60462;-81
2022/07/19 04:05:46;;;;;;;;;;;;;;;28.53;36.69;101583.77;104853;1306;60554;-81
2022/07/19 04:08:11;;;;;;;;;;;;;;;28.53;36.52;101578.38;104907;1305;60510;-81
2022/07/19 04:10:37;;;;;;;;;;;;;;;28.53;36.60;101576.58;104878;1305;60441;-81
2022/07/19 04:13:03;;;;;;;;;;;;;;;28.52;36.59;101580.76;104830;1305;60581;-81
2022/07/19 04:15:28;;;;;;;;;;;;;;;28.53;36.82;101585.45;104864;1306;60456;-80
2022/07/19 04:17:53;;;;;;;;;;;;;;;28.53;36.52;101581.45;104857;1306;74700;-80
2022/07/19 04:20:19;;;;;;;;;;;;;;;28.53;36.59;101583.80;104926;1303;60558;-81
2022/07/19 04:22:44;;;;;;;;;;;;;;;28.53;36.61;101580.73;104877;1306;60561;-81
2022/07/19 04:25:10;;;;;;;;;;;;;;;28.53;36.65;101579.82;104910;1305;60503;-81
2022/07/19 04:27:35;;;;;;;;;;;;;;;28.53;36.76;101580.70;104948;1306;60478;-81
2022/07/19 04:30:01;;;;;;;;;;;;;;;28.53;36.64;101581.62;104865;1306;60424;-81
2022/07/19 04:32:28;;;;;;;;;;;;;;;28.53;36.45;101580.53;104881;1306;61757;-80
2022/07/19 04:34:54;;;;;;;;;;;;;;;28.53;36.68;101584.88;104834;1306;61345;-80
2022/07/19 04:37:20;;;;;;;;;;;;;;;28.53;36.43;101585.02;104855;1306;60471;-80
2022/07/19 04:39:46;;;;;;;;;;;;;;;28.53;36.34;101583.05;104838;1306;60588;-80
2022/07/19 04:42:11;;;;;;;;;;;;;;;28.53;36.31;101579.59;104846;1306;60454;-80
2022/07/19 04:44:37;;;;;;;;;;;;;;;28.53;36.40;101583.26;104840;1306;60341;-80
2022/07/19 04:47:02;;;;;;;;;;;;;;;28.53;36.22;101583.95;104897;1305;60557;-80
2022/07/19 04:49:28;;;;;;;;;;;;;;;28.53;36.19;101584.34;104835;1306;60507;-80
2022/07/19 04:51:53;;;;;;;;;;;;;;;28.53;36.10;101583.95;104825;1306;60496;-80
2022/07/19 04:54:19;;;;;;;;;;;;;;;28.53;35.90;101585.20;104873;1306;60440;-80
2022/07/19 04:56:44;;;;;;;;;;;;;;;28.54;35.88;101585.67;104883;1306;61001;-81
2022/07/19 04:59:10;;;;;;;;;;;;;;;28.54;36.00;101585.67;104899;1305;60610;-81
2022/07/19 05:01:35;;;;;;;;;;;;;;;28.54;36.02;101586.90;104737;1306;60450;-81
2022/07/19 05:04:00;;;;;;;;;;;;;;;28.55;35.91;101587.96;104832;1306;60442;-81
2022/07/19 05:06:26;;;;;;;;;;;;;;;28.56;35.68;101585.88;104878;1306;60424;-81
2022/07/19 05:08:52;;;;;;;;;;;;;;;28.56;35.56;101588.91;104879;1306;60481;-81
2022/07/19 05:11:18;;;;;;;;;;;;;;;28.57;35.56;101591.77;104889;1305;60454;-81
2022/07/19 05:13:43;;;;;;;;;;;;;;;28.57;35.41;101588.09;104732;1306;72708;-81
2022/07/19 05:16:10;;;;;;;;;;;;;;;28.57;35.28;101590.29;104883;1305;60497;-81
2022/07/19 05:18:35;;;;;;;;;;;;;;;28.58;35.41;101589.51;104774;1305;60491;-80
2022/07/19 05:21:00;;;;;;;;;;;;;;;28.57;35.11;101592.98;104892;1306;60475;-80
2022/07/19 05:23:26;;;;;;;;;;;;;;;28.57;35.08;101588.83;104887;1306;60554;-80
2022/07/19 05:25:51;;;;;;;;;;;;;;;28.58;35.18;101592.61;104969;1305;60506;-81
2022/07/19 05:28:17;;;;;;;;;;;;;;;28.58;35.10;101590.77;104913;1306;61264;-81
2022/07/19 05:30:43;;;;;;;;;;;;;;;28.57;34.97;101591.52;104932;1305;60500;-80
2022/07/19 05:33:09;;;;;;;;;;;;;;;28.58;35.00;101594.71;104901;1305;60426;-80
2022/07/19 05:35:34;;;;;;;;;;;;;;;28.58;34.69;101593.05;104880;1306;60465;-80
2022/07/19 05:37:59;;;;;;;;;;;;;;;28.59;34.64;101593.04;104796;1306;60507;-81
2022/07/19 05:40:25;;;;;;;;;;;;;;;28.59;34.67;101598.23;104825;1305;73938;-81
2022/07/19 05:42:50;;;;;;;;;;;;;;;28.59;34.74;101596.95;104760;1306;60923;-81
2022/07/19 05:45:17;;;;;;;;;;;;;;;28.60;34.43;101596.18;104688;1306;59324;-81
2022/07/19 05:47:42;;;;;;;;;;;;;;;28.61;34.38;101595.35;104798;1306;60487;-81
2022/07/19 05:50:08;;;;;;;;;;;;;;;28.62;34.51;101595.25;104821;1306;60472;-81
2022/07/19 05:52:34;;;;;;;;;;;;;;;28.63;34.31;101594.14;104946;1306;60498;-80
2022/07/19 05:54:59;;;;;;;;;;;;;;;28.63;34.33;101593.02;104848;1306;60337;-80
2022/07/19 05:57:25;;;;;;;;;;;;;;;28.64;34.17;101592.98;104724;1306;60641;-80
2022/07/19 05:59:50;;;;;;;;;;;;;;;28.64;34.06;101599.83;104547;1306;60578;-81
2022/07/19 06:02:16;;;;;;;;;;;;;;;28.65;34.21;101595.78;104775;1305;60472;-81
2022/07/19 06:04:42;;;;;;;;;;;;;;;28.66;34.11;101596.40;104829;1306;60494;-81
2022/07/19 06:07:08;;;;;;;;;;;;;;;28.67;33.92;101593.45;104867;1305;60456;-81
2022/07/19 06:09:34;;;;;;;;;;;;;;;28.67;33.91;101593.56;104728;1306;60366;-81
2022/07/19 06:11:59;;;;;;;;;;;;;;;28.68;33.69;101594.73;104612;1305;60567;-80
2022/07/19 06:14:25;;;;;;;;;;;;;;;28.69;33.70;101594.33;104846;1306;60444;-80
2022/07/19 06:16:50;;;;;;;;;;;;;;;28.69;33.61;101592.84;104797;1306;60451;-80
2022/07/19 06:19:15;;;;;;;;;;;;;;;28.71;33.71;101597.43;104758;1306;59473;-80
2022/07/19 06:21:41;;;;;;;;;;;;;;;28.71;33.41;101594.52;104651;1306;61527;-81
2022/07/19 06:24:06;;;;;;;;;;;;;;;28.71;33.52;101595.19;104613;1306;60439;-81
2022/07/19 06:26:32;;;;;;;;;;;;;;;28.71;33.37;101594.08;104728;1306;60445;-81
2022/07/19 06:28:58;;;;;;;;;;;;;;;28.73;33.12;101594.16;104490;1306;413049;-81
2022/07/19 06:31:24;;;;;;;;;;;;;;;28.73;33.44;101592.31;104680;1306;61214;-81
2022/07/19 06:33:50;;;;;;;;;;;;;;;28.74;32.91;101595.31;104878;1305;60628;-81
2022/07/19 06:36:16;;;;;;;;;;;;;;;28.74;33.23;101596.74;104479;1306;72782;-81
2022/07/19 06:38:42;;;;;;;;;;;;;;;28.74;33.04;101594.73;104807;1306;60477;-81
2022/07/19 06:41:08;;;;;;;;;;;;;;;28.75;33.00;101597.57;104636;1306;60424;-81
2022/07/19 06:43:34;;;;;;;;;;;;;;;28.76;33.09;101600.39;104663;1305;61523;-81
2022/07/19 06:45:59;;;;;;;;;;;;;;;28.76;32.82;101599.84;104624;1306;60669;-81
2022/07/19 06:48:25;;;;;;;;;;;;;;;28.77;32.58;101600.84;104668;1306;60556;-81
2022/07/19 06:50:51;;;;;;;;;;;;;;;28.78;32.67;101600.98;104808;1306;73743;-81
2022/07/19 06:53:16;;;;;;;;;;;;;;;28.78;32.62;101600.41;104860;1306;60491;-81
2022/07/19 06:55:42;;;;;;;;;;;;;;;28.77;32.84;101600.60;104837;1305;60477;-81
2022/07/19 06:58:07;;;;;;;;;;;;;;;28.77;32.80;101601.35;104723;1306;60459;-81
2022/07/19 07:00:32;;;;;;;;;;;;;;;28.77;32.43;101599.72;104855;1306;60470;-81
2022/07/19 07:02:58;;;;;;;;;;;;;;;28.77;32.34;101599.38;104791;1305;60446;-81
2022/07/19 07:05:23;;;;;;;;;;;;;;;28.77;32.45;101599.59;104777;1306;60529;-81
2022/07/19 07:07:51;;;;;;;;;;;;;;;28.77;32.51;101601.04;104864;1304;60407;-81
2022/07/19 07:10:16;;;;;;;;;;;;;;;28.76;32.22;101599.42;104720;1306;60447;-82
2022/07/19 07:12:42;;;;;;;;;;;;;;;28.76;32.27;101599.45;104834;1305;60510;-82
2022/07/19 07:15:07;;;;;;;;;;;;;;;28.76;32.14;101603.25;104870;1305;60441;-81
2022/07/19 07:17:34;;;;;;;;;;;;;;;28.77;32.47;101602.84;104847;1305;60938;-81
2022/07/19 07:19:59;;;;;;;;;;;;;;;28.76;32.04;101601.95;104863;1305;60526;-81
2022/07/19 07:22:25;;;;;;;;;;;;;;;28.76;32.07;101604.31;104630;1306;61741;-81
2022/07/19 07:24:50;;;;;;;;;;;;;;;28.75;32.15;101601.69;104851;1305;60461;-81
2022/07/19 07:27:15;;;;;;;;;;;;;;;28.75;32.21;101600.29;104924;1306;60476;-81
2022/07/19 07:29:41;;;;;;;;;;;;;;;28.74;31.96;101606.36;104909;1306;60586;-80
2022/07/19 07:32:06;;;;;;;;;;;;;;;28.72;31.95;101603.98;104835;1306;60436;-81
2022/07/19 07:34:32;;;;;;;;;;;;;;;28.71;32.15;101606.60;104856;1306;59396;-80
2022/07/19 07:36:57;;;;;;;;;;;;;;;28.71;32.22;101607.55;104866;1306;60583;-81
2022/07/19 07:39:24;;;;;;;;;;;;;;;28.70;32.05;101603.63;104860;1305;60415;-81
2022/07/19 07:41:50;;;;;;;;;;;;;;;28.70;32.10;101598.05;104749;1306;60458;-81
2022/07/19 07:44:15;;;;;;;;;;;;;;;28.70;32.11;101599.67;104904;1306;60443;-81
2022/07/19 07:46:41;;;;;;;;;;;;;;;28.70;32.16;101597.67;104857;1305;60568;-81
2022/07/19 07:49:06;;;;;;;;;;;;;;;28.69;32.14;101600.42;104842;1306;60491;-81
2022/07/19 07:51:32;;;;;;;;;;;;;;;28.70;32.05;101596.42;104849;1306;61127;-82
2022/07/19 07:54:00;;;;;;;;;;;;;;;28.70;31.97;101591.33;104891;1306;60542;-81
2022/07/19 07:56:26;;;;;;;;;;;;;;;28.69;31.92;101593.21;104818;1305;60373;-81
2022/07/19 07:58:51;;;;;;;;;;;;;;;28.69;32.07;101593.01;104877;1305;60468;-81
2022/07/19 08:01:17;;;;;;;;;;;;;;;28.70;31.81;101596.95;104835;1306;60538;-81
2022/07/19 08:03:42;;;;;;;;;;;;;;;28.70;31.62;101595.67;104864;1305;60455;-82
2022/07/19 08:06:08;;;;;;;;;;;;;;;28.70;31.72;101592.20;104864;1305;60465;-81
2022/07/19 08:08:33;;;;;;;;;;;;;;;28.71;31.40;101590.55;104842;1305;60721;-81
2022/07/19 08:10:59;;;;;;;;;;;;;;;28.70;31.53;101592.75;104840;1306;60517;-81
2022/07/19 08:13:24;;;;;;;;;;;;;;;28.71;31.46;101593.94;104821;1306;60465;-81
2022/07/19 08:15:50;;;;;;;;;;;;;;;28.71;31.59;101592.30;104834;1306;60546;-81
2022/07/19 08:18:15;;;;;;;;;;;;;;;28.70;31.66;101586.59;104897;1306;60475;-80
2022/07/19 08:20:41;;;;;;;;;;;;;;;28.70;31.39;101584.44;104853;1305;60455;-82
2022/07/19 08:23:07;;;;;;;;;;;;;;;28.70;31.42;101588.79;104688;1306;61106;-82
2022/07/19 08:25:34;;;;;;;;;;;;;;;28.70;31.20;101587.52;104873;1305;61644;-82
2022/07/19 08:28:00;;;;;;;;;;;;;;;28.70;31.18;101588.45;104855;1306;60587;-82
2022/07/19 08:30:25;;;;;;;;;;;;;;;28.70;31.14;101588.45;104833;1306;60476;-81
2022/07/19 08:32:50;;;;;;;;;;;;;;;28.69;31.13;101587.58;104786;1305;60439;-81
2022/07/19 08:35:16;;;;;;;;;;;;;;;28.69;31.13;101583.77;104853;1306;60470;-81
2022/07/19 08:37:41;;;;;;;;;;;;;;;28.69;31.14;101585.75;104828;1306;60429;-81
2022/07/19 08:40:07;;;;;;;;;;;;;;;28.69;31.22;101580.52;104855;1305;60471;-81
2022/07/19 08:42:33;;;;;;;;;;;;;;;28.69;31.09;101574.73;104675;1306;60575;-81
2022/07/19 08:44:59;;;;;;;;;;;;;;;28.69;31.16;101572.40;104695;1305;61890;-81
2022/07/19 08:47:26;;;;;;;;;;;;;;;28.69;31.00;101572.79;104698;1305;60342;-83
2022/07/19 08:49:51;;;;;;;;;;;;;;;28.69;31.06;101572.05;104700;1306;60574;-83
2022/07/19 08:52:17;;;;;;;;;;;;;;;28.69;30.95;101572.91;104779;1306;60441;-83
2022/07/19 08:54:42;;;;;;;;;;;;;;;28.70;30.71;101572.69;104851;1306;60474;-83
2022/07/19 08:59:52;;;;;;;;;;;;;;;28.71;30.63;101566.05;104858;1306;60465;-83
2022/07/19 09:02:17;;;;;;;;;;;;;;;28.71;30.44;101558.25;104853;1306;59298;-83
2022/07/19 09:04:43;;;;;;;;;;;;;;;28.71;30.32;101557.02;104857;1306;60481;-83
2022/07/19 09:07:09;;;;;;;;;;;;;;;28.71;30.60;101554.08;104848;1306;60484;-83
2022/07/19 09:09:36;;;;;;;;;;;;;;;28.72;30.31;101556.38;104874;1306;60526;-83
2022/07/19 09:12:02;;;;;;;;;;;;;;;28.72;30.09;101551.28;104736;1306;60511;-83
2022/07/19 09:14:38;;;;;;;;;;;;;;;28.72;30.37;101547.11;104585;1306;60548;-82
2022/07/19 09:17:11;;;;;;;;;;;;;;;28.73;30.35;101548.87;104833;1306;74823;-82
2022/07/19 09:19:40;;;;;;;;;;;;;;;28.73;30.00;101545.76;104690;1306;61144;-81
2022/07/19 09:22:07;;;;;;;;;;;;;;;28.73;30.38;101540.68;104583;1305;61249;-81
2022/07/19 09:24:40;;;;;;;;;;;;;;;28.73;30.03;101542.52;104610;1306;60459;-81
2022/07/19 09:27:07;;;;;;;;;;;;;;;28.73;30.23;101544.27;104926;1306;75295;-81
2022/07/19 09:29:38;;;;;;;;;;;;;;;28.74;30.06;101538.09;104984;1306;60455;-82
2022/07/19 09:32:08;;;;;;;;;;;;;;;28.74;30.08;101537.14;104865;1305;61648;-81
2022/07/19 09:34:34;;;;;;;;;;;;;;;28.74;30.22;101536.77;104643;1306;73712;-82
2022/07/19 09:37:09;;;;;;;;;;;;;;;28.74;29.94;101537.65;104600;1306;60511;-82
2022/07/19 09:39:34;;;;;;;;;;;;;;;28.75;29.94;101537.39;104804;1306;61133;-80
2022/07/19 09:42:02;;;;;;;;;;;;;;;28.75;30.18;101533.63;104672;1306;60570;-81
2022/07/19 09:44:29;;;;;;;;;;;;;;;28.75;29.96;101530.73;104808;1306;72876;-81
2022/07/19 09:46:55;;;;;;;;;;;;;;;28.74;30.14;101535.27;104795;1306;74033;-81
2022/07/19 09:49:20;;;;;;;;;;;;;;;28.74;30.09;101531.85;104714;1306;60561;-81
2022/07/19 09:51:47;;;;;;;;;;;;;;;28.74;29.96;101527.52;104701;1306;60549;-81
2022/07/19 09:54:14;;;;;;;;;;;;;;;28.74;29.98;101526.13;104720;1306;60420;-81
2022/07/19 09:56:40;;;;;;;;;;;;;;;28.74;29.79;101521.42;104828;1306;60552;-80
2022/07/19 09:59:06;;;;;;;;;;;;;;;28.73;29.80;101520.96;104825;1305;60517;-81
2022/07/19 10:01:31;;;;;;;;;;;;;;;28.73;29.77;101521.14;104783;1306;60468;-81
2022/07/19 10:04:01;;;;;;;;;;;;;;;28.73;30.00;101520.41;104688;1306;60573;-81
2022/07/19 10:06:26;;;;;;;;;;;;;;;28.72;30.01;101517.77;104705;1306;73008;-81
2022/07/19 10:08:52;;;;;;;;;;;;;;;28.71;30.13;101518.38;104883;1305;60478;-81
2022/07/19 10:11:18;;;;;;;;;;;;;;;28.71;30.08;101513.58;104665;1306;60386;-81
2022/07/19 10:13:43;;;;;;;;;;;;;;;28.70;30.00;101510.20;104719;1306;60430;-81
2022/07/19 10:16:10;;;;;;;;;;;;;;;28.70;29.88;101507.65;104640;1305;60472;-81
2022/07/19 10:18:37;;;;;;;;;;;;;;;28.70;29.91;101505.66;104835;1306;60584;-81
2022/07/19 10:21:02;;;;;;;;;;;;;;;28.70;30.11;101503.45;104722;1306;60436;-80
2022/07/19 10:23:29;;;;;;;;;;;;;;;28.71;29.81;101501.79;104845;1306;60479;-81
2022/07/19 10:25:55;;;;;;;;;;;;;;;28.71;29.70;101496.52;104862;1306;60445;-81
2022/07/19 10:28:34;;;;;;;;;;;;;;;28.71;29.84;101495.63;104845;1306;60462;-81
2022/07/19 10:31:00;;;;;;;;;;;;;;;28.71;29.88;101490.36;104851;1306;61078;-81
2022/07/19 10:33:37;;;;;;;;;;;;;;;28.71;29.96;101486.02;104847;1306;60478;-81
2022/07/19 10:36:21;;;;;;;;;;;;;;;28.71;29.75;101484.76;104880;1305;73864;-81
2022/07/19 10:39:16;;;;;;;;;;;;;;;28.70;29.51;101484.61;104816;1306;74840;-80
2022/07/19 10:42:02;;;;;;;;;;;;;;;28.71;29.67;101482.41;104738;1306;60565;-81
2022/07/19 10:44:27;;;;;;;;;;;;;;;28.71;29.60;101479.29;104837;1306;61742;-81
2022/07/19 10:46:53;;;;;;;;;;;;;;;28.71;29.65;101474.79;104788;1306;59288;-82
2022/07/19 10:49:37;;;;;;;;;;;;;;;28.71;29.77;101473.69;104826;1306;60488;-82
2022/07/19 10:52:21;;;;;;;;;;;;;;;28.71;29.54;101473.31;104740;1306;60509;-82
2022/07/19 10:54:46;;;;;;;;;;;;;;;28.71;29.59;101468.42;104830;1305;61500;-82
2022/07/19 10:57:12;;;;;;;;;;;;;;;28.71;29.50;101468.08;104840;1306;62058;-82
2022/07/19 10:59:41;;;;;;;;;;;;;;;28.70;29.39;101462.67;104694;1306;61222;-81
2022/07/19 11:02:07;;;;;;;;;;;;;;;28.70;29.53;101460.34;104718;1306;61199;-81
2022/07/19 11:04:34;;;;;;;;;;;;;;;28.71;29.62;101463.23;104680;1306;61390;-81
2022/07/19 11:07:29;;;;;;;;;;;;;;;28.71;29.39;101457.97;104619;1306;61287;-81
2022/07/19 11:09:57;;;;;;;;;;;;;;;28.70;29.37;101455.46;104324;1312;76446;-82
2022/07/19 11:12:24;;;;;;;;;;;;;;;28.71;29.67;101457.23;104282;1311;62119;-82
2022/07/19 11:14:50;;;;;;;;;;;;;;;28.71;29.60;101453.08;104354;1312;61177;-82
2022/07/19 11:17:15;;;;;;;;;;;;;;;28.71;29.43;101448.36;104346;1312;61380;-81
2022/07/19 11:20:02;;;;;;;;;;;;;;;28.71;29.54;101448.16;104310;1312;61397;-82
2022/07/19 11:22:32;;;;;;;;;;;;;;;28.71;29.56;101442.52;104327;1312;61294;-82
2022/07/19 11:24:57;;;;;;;;;;;;;;;28.71;29.52;101441.42;104270;1312;62840;-82
2022/07/19 11:27:23;;;;;;;;;;;;;;;28.71;29.51;101428.05;104378;1312;61291;-82
2022/07/19 11:29:56;;;;;;;;;;;;;;;28.72;29.77;101430.33;104253;1313;61305;-80
2022/07/19 11:32:21;;;;;;;;;;;;;;;28.72;29.68;101429.92;104310;1313;61600;-81
2022/07/19 11:35:06;;;;;;;;;;;;;;;28.72;29.69;101424.89;104355;1312;61374;-81
2022/07/19 11:37:33;;;;;;;;;;;;;;;28.72;29.53;101423.07;104315;1312;73236;-81
2022/07/19 11:39:58;;;;;;;;;;;;;;;28.72;29.72;101424.48;104338;1312;74608;-81
2022/07/19 11:42:30;;;;;;;;;;;;;;;28.72;29.75;101426.68;104179;1312;61374;-81
2022/07/19 11:44:56;;;;;;;;;;;;;;;28.73;29.90;101424.98;104132;1312;61711;-81
2022/07/19 11:47:21;;;;;;;;;;;;;;;28.73;29.86;101418.27;104580;1306;60941;-81
2022/07/19 11:49:47;;;;;;;;;;;;;;;28.73;29.87;101417.16;104739;1305;61019;-81
2022/07/19 11:52:13;;;;;;;;;;;;;;;28.73;29.78;101415.15;104631;1306;61253;-81
2022/07/19 11:54:38;;;;;;;;;;;;;;;28.74;29.91;101414.54;104608;1306;61308;-81
2022/07/19 11:57:04;;;;;;;;;;;;;;;28.74;29.83;101410.67;104793;1306;61341;-81
2022/07/19 11:59:29;;;;;;;;;;;;;;;28.76;30.00;101410.39;104685;1306;61350;-81
2022/07/19 12:01:57;;;;;;;;;;;;;;;28.75;29.78;101404.65;104570;1306;61371;-81
2022/07/19 12:04:23;;;;;;;;;;;;;;;28.76;29.93;101405.83;104728;1306;61135;-81
2022/07/19 12:06:50;;;;;;;;;;;;;;;28.77;29.82;101399.79;104682;1306;61170;-82
2022/07/19 12:09:16;;;;;;;;;;;;;;;28.77;29.87;101393.41;104803;1306;73502;-81
2022/07/19 12:11:45;;;;;;;;;;;;;;;28.78;29.87;101393.92;104849;1306;61284;-81
2022/07/19 12:14:24;;;;;;;;;;;;;;;28.78;30.01;101393.11;104778;1306;61159;-81
2022/07/19 12:16:50;;;;;;;;;;;;;;;28.79;30.13;101387.12;104852;1306;61161;-81
2022/07/19 12:19:19;;;;;;;;;;;;;;;28.79;29.91;101381.15;104839;1306;61376;-81
2022/07/19 12:21:44;;;;;;;;;;;;;;;28.79;29.88;101385.64;104721;1306;75727;-81
2022/07/19 12:24:16;;;;;;;;;;;;;;;28.79;30.08;101378.73;104855;1306;61243;-81